createdAt,value
2018-09-18T00:01:31.277Z,99.90
2018-09-18T00:03:58.768Z,99.90
2018-09-18T00:06:27.685Z,99.90
2018-09-18T00:08:55.192Z,99.90
2018-09-18T00:11:22.743Z,99.90
2018-09-18T00:13:50.202Z,99.90
2018-09-18T00:16:17.637Z,99.90
2018-09-18T00:18:45.390Z,99.90
2018-09-18T00:21:13.205Z,99.90
2018-09-18T00:23:40.759Z,99.90
2018-09-18T00:26:08.179Z,99.90
2018-09-18T00:28:38.300Z,99.90
2018-09-18T00:31:06.252Z,99.90
2018-09-18T00:33:33.695Z,99.90
2018-09-18T00:36:01.125Z,99.90
2018-09-18T00:38:28.587Z,99.90
2018-09-18T00:40:56.018Z,99.90
2018-09-18T00:43:25.552Z,99.90
2018-09-18T00:45:53.149Z,99.90
2018-09-18T00:48:20.567Z,99.90
2018-09-18T00:50:48.100Z,99.90
2018-09-18T00:53:15.550Z,99.90
2018-09-18T00:55:43.078Z,99.90
2018-09-18T00:58:10.516Z,99.90
2018-09-18T01:00:37.938Z,99.90
2018-09-18T01:03:05.359Z,99.90
2018-09-18T01:05:32.852Z,99.90
2018-09-18T01:08:02.757Z,99.90
2018-09-18T01:10:30.263Z,99.90
2018-09-18T01:12:57.722Z,99.90
2018-09-18T01:15:25.205Z,99.90
2018-09-18T01:17:52.608Z,99.90
2018-09-18T01:20:20.091Z,99.90
2018-09-18T01:22:49.520Z,99.90
2018-09-18T01:25:17.049Z,99.90
2018-09-18T01:27:44.578Z,99.90
2018-09-18T01:30:14.292Z,99.90
2018-09-18T01:32:41.823Z,99.90
2018-09-18T01:35:09.239Z,99.90
2018-09-18T01:37:38.332Z,99.90
2018-09-18T01:40:05.965Z,99.90
2018-09-18T01:42:33.424Z,99.90
2018-09-18T01:45:03.177Z,99.90
2018-09-18T01:47:30.619Z,99.90
2018-09-18T01:49:58.064Z,99.90
2018-09-18T01:52:25.565Z,99.90
2018-09-18T01:54:53.027Z,99.90
2018-09-18T01:57:20.535Z,99.90
2018-09-18T01:59:51.640Z,99.90
2018-09-18T02:02:19.151Z,99.90
2018-09-18T02:04:46.746Z,99.90
2018-09-18T02:07:14.239Z,99.90
2018-09-18T02:09:41.647Z,99.90
2018-09-18T02:12:09.107Z,99.90
2018-09-18T02:14:36.611Z,99.90
2018-09-18T02:17:05.755Z,99.90
2018-09-18T02:19:33.179Z,99.90
2018-09-18T02:22:00.626Z,99.90
2018-09-18T02:24:28.093Z,99.90
2018-09-18T02:26:58.140Z,99.90
2018-09-18T02:29:26.142Z,99.90
2018-09-18T02:31:53.576Z,99.90
2018-09-18T02:34:20.987Z,99.90
2018-09-18T02:36:48.402Z,99.90
2018-09-18T02:39:17.764Z,99.90
2018-09-18T02:41:45.179Z,99.90
2018-09-18T02:44:12.641Z,99.90
2018-09-18T02:46:41.776Z,99.90
2018-09-18T02:49:09.250Z,99.90
2018-09-18T02:51:36.731Z,99.90
2018-09-18T02:54:06.420Z,99.90
2018-09-18T02:56:33.851Z,99.90
2018-09-18T02:59:01.376Z,99.90
2018-09-18T03:01:30.460Z,99.90
2018-09-18T03:03:57.974Z,99.90
2018-09-18T03:06:25.411Z,99.90
2018-09-18T03:08:54.704Z,99.90
2018-09-18T03:11:23.126Z,99.90
2018-09-18T03:13:50.572Z,99.90
2018-09-18T03:16:18.312Z,99.90
2018-09-18T03:18:45.731Z,99.90
2018-09-18T03:21:14.736Z,99.90
2018-09-18T03:23:42.271Z,99.90
2018-09-18T03:26:09.952Z,99.90
2018-09-18T03:28:37.823Z,99.90
2018-09-18T03:31:05.256Z,99.90
2018-09-18T03:33:32.764Z,99.90
2018-09-18T03:36:00.175Z,99.90
2018-09-18T03:38:27.724Z,99.90
2018-09-18T03:40:55.134Z,99.90
2018-09-18T03:43:22.943Z,99.90
2018-09-18T03:45:50.395Z,99.90
2018-09-18T03:48:18.286Z,99.90
2018-09-18T03:50:47.209Z,99.90
2018-09-18T03:53:15.167Z,99.90
2018-09-18T03:55:43.131Z,99.90
2018-09-18T03:58:12.648Z,99.90
2018-09-18T04:00:40.073Z,99.90
2018-09-18T04:03:09.299Z,99.90
2018-09-18T04:05:37.779Z,99.90
2018-09-18T04:08:06.764Z,99.90
2018-09-18T04:10:34.497Z,99.90
2018-09-18T04:13:01.996Z,99.90
2018-09-18T04:15:29.432Z,99.90
2018-09-18T04:17:58.172Z,99.90
2018-09-18T04:20:25.652Z,99.90
2018-09-18T04:22:53.068Z,99.90
2018-09-18T04:25:20.564Z,99.90
2018-09-18T04:27:48.026Z,99.90
2018-09-18T04:30:15.508Z,99.90
2018-09-18T04:32:42.995Z,99.90
2018-09-18T04:35:10.453Z,99.90
2018-09-18T04:37:37.999Z,99.90
2018-09-18T04:40:06.596Z,99.90
2018-09-18T04:42:34.312Z,99.90
2018-09-18T04:45:01.985Z,99.90
2018-09-18T04:47:29.478Z,99.90
2018-09-18T04:49:56.983Z,99.90
2018-09-18T04:52:24.419Z,99.90
2018-09-18T04:54:51.878Z,99.90
2018-09-18T04:57:21.400Z,99.90
2018-09-18T04:59:48.885Z,99.90
2018-09-18T05:02:16.481Z,99.90
2018-09-18T05:04:45.139Z,99.90
2018-09-18T05:07:12.583Z,99.90
2018-09-18T05:09:40.034Z,99.90
2018-09-18T05:12:08.737Z,99.90
2018-09-18T05:14:36.191Z,99.90
2018-09-18T05:17:05.549Z,99.90
2018-09-18T05:19:32.980Z,99.90
2018-09-18T05:22:00.439Z,99.90
2018-09-18T05:24:27.912Z,99.90
2018-09-18T05:26:55.392Z,99.90
2018-09-18T05:29:23.847Z,99.90
2018-09-18T05:31:51.341Z,99.90
2018-09-18T05:34:18.750Z,99.90
2018-09-18T05:36:47.847Z,99.90
2018-09-18T05:39:15.271Z,99.90
2018-09-18T05:41:42.685Z,99.90
2018-09-18T05:44:10.119Z,99.90
2018-09-18T05:46:37.591Z,99.90
2018-09-18T05:49:05.187Z,99.90
2018-09-18T05:51:32.872Z,99.90
2018-09-18T05:54:00.329Z,99.90
2018-09-18T05:56:27.835Z,99.90
2018-09-18T05:58:55.298Z,99.90
2018-09-18T06:01:22.759Z,99.90
2018-09-18T06:03:50.217Z,99.90
2018-09-18T06:06:17.697Z,99.90
2018-09-18T06:08:45.115Z,99.90
2018-09-18T06:11:14.460Z,99.90
2018-09-18T06:13:41.901Z,99.90
2018-09-18T06:16:09.531Z,99.90
2018-09-18T06:18:37.052Z,99.90
2018-09-18T06:21:04.472Z,99.90
2018-09-18T06:23:31.911Z,99.90
2018-09-18T06:25:59.675Z,99.90
2018-09-18T06:28:27.161Z,99.90
2018-09-18T06:30:54.587Z,99.90
2018-09-18T06:33:22.436Z,99.90
2018-09-18T06:35:50.354Z,99.90
2018-09-18T06:38:17.831Z,99.90
2018-09-18T06:40:45.419Z,99.90
2018-09-18T06:43:12.839Z,99.90
2018-09-18T06:45:42.016Z,99.90
2018-09-18T06:48:09.517Z,99.90
2018-09-18T06:50:39.160Z,99.90
2018-09-18T06:53:06.972Z,99.90
2018-09-18T06:55:35.803Z,99.90
2018-09-18T06:58:03.638Z,99.90
2018-09-18T07:00:31.178Z,99.90
2018-09-18T07:02:58.643Z,99.90
2018-09-18T07:05:26.172Z,99.90
2018-09-18T07:07:53.701Z,99.90
2018-09-18T07:10:21.223Z,99.90
2018-09-18T07:12:49.299Z,99.90
2018-09-18T07:15:16.968Z,99.90
2018-09-18T07:17:45.533Z,99.90
2018-09-18T07:20:13.112Z,99.90
2018-09-18T07:22:40.676Z,99.90
2018-09-18T07:25:10.358Z,99.90
2018-09-18T07:27:37.930Z,99.90
2018-09-18T07:30:06.335Z,99.90
2018-09-18T07:32:33.885Z,99.90
2018-09-18T07:35:01.645Z,99.90
2018-09-18T07:37:29.175Z,99.90
2018-09-18T07:39:56.792Z,99.90
2018-09-18T07:42:24.307Z,99.90
2018-09-18T07:44:51.841Z,99.90
2018-09-18T07:47:19.367Z,99.90
2018-09-18T07:49:49.437Z,99.90
2018-09-18T07:52:17.104Z,99.90
2018-09-18T07:54:44.595Z,99.90
2018-09-18T07:57:12.339Z,99.90
2018-09-18T07:59:39.926Z,99.90
2018-09-18T08:02:07.351Z,99.90
2018-09-18T08:04:36.897Z,99.90
2018-09-18T08:07:06.348Z,99.90
2018-09-18T08:09:33.817Z,99.90
2018-09-18T08:12:01.295Z,99.90
2018-09-18T08:14:28.736Z,99.90
2018-09-18T08:16:56.164Z,99.90
2018-09-18T08:19:23.672Z,99.90
2018-09-18T08:21:51.172Z,99.90
2018-09-18T08:24:18.607Z,99.90
2018-09-18T08:26:46.044Z,99.90
2018-09-18T08:29:13.512Z,99.90
2018-09-18T08:31:42.911Z,99.90
2018-09-18T08:34:10.384Z,99.90
2018-09-18T08:36:37.879Z,99.30
2018-09-18T08:39:07.589Z,98.90
2018-09-18T08:41:35.160Z,98.90
2018-09-18T08:44:03.689Z,98.60
2018-09-18T08:46:31.112Z,98.20
2018-09-18T08:48:59.473Z,98.10
2018-09-18T08:51:27.095Z,98.00
2018-09-18T08:53:54.575Z,98.00
2018-09-18T08:56:22.192Z,98.00
2018-09-18T08:58:50.057Z,98.00
2018-09-18T09:01:17.587Z,97.90
2018-09-18T09:03:45.032Z,97.90
2018-09-18T09:06:12.483Z,97.80
2018-09-18T09:08:40.573Z,97.70
2018-09-18T09:11:08.025Z,97.30
2018-09-18T09:13:35.558Z,97.10
2018-09-18T09:16:03.922Z,97.10
2018-09-18T09:18:31.642Z,96.40
2018-09-18T09:20:59.177Z,96.60
2018-09-18T09:23:26.636Z,96.50
2018-09-18T09:25:54.261Z,96.50
2018-09-18T09:28:21.849Z,96.50
2018-09-18T09:30:49.506Z,96.00
2018-09-18T09:33:17.192Z,95.80
2018-09-18T09:35:44.652Z,95.40
2018-09-18T09:38:12.242Z,95.30
2018-09-18T09:40:39.668Z,95.30
2018-09-18T09:43:07.099Z,95.20
2018-09-18T09:45:34.556Z,95.20
2018-09-18T09:48:02.071Z,95.10
2018-09-18T09:50:29.533Z,95.10
2018-09-18T09:52:57.453Z,95.00
2018-09-18T09:55:24.962Z,94.20
2018-09-18T09:57:52.483Z,94.10
2018-09-18T10:00:25.469Z,94.10
2018-09-18T10:02:53.009Z,94.10
2018-09-18T10:05:20.417Z,93.40
2018-09-18T10:07:47.871Z,93.50
2018-09-18T10:10:15.376Z,93.40
2018-09-18T10:12:43.172Z,92.70
2018-09-18T10:15:10.756Z,92.90
2018-09-18T10:17:38.805Z,92.60
2018-09-18T10:20:06.755Z,92.40
2018-09-18T10:22:36.352Z,92.00
2018-09-18T10:25:04.040Z,91.70
2018-09-18T10:27:31.417Z,91.80
2018-09-18T10:29:58.875Z,91.40
2018-09-18T10:32:27.568Z,91.30
2018-09-18T10:34:55.020Z,91.00
2018-09-18T10:37:22.520Z,90.90
2018-09-18T10:39:49.980Z,90.90
2018-09-18T10:42:18.048Z,90.90
2018-09-18T10:44:45.466Z,90.10
2018-09-18T10:47:13.464Z,90.30
2018-09-18T10:49:40.937Z,89.50
2018-09-18T10:52:08.477Z,89.00
2018-09-18T10:54:37.350Z,89.10
2018-09-18T10:57:04.895Z,89.30
2018-09-18T10:59:32.317Z,89.60
2018-09-18T11:02:00.463Z,89.60
2018-09-18T11:04:27.822Z,88.20
2018-09-18T11:06:55.519Z,87.60
2018-09-18T11:09:22.865Z,86.70
2018-09-18T11:11:50.499Z,86.00
2018-09-18T11:14:18.105Z,85.50
2018-09-18T11:16:45.625Z,84.20
2018-09-18T11:19:13.096Z,81.80
2018-09-18T11:21:40.715Z,80.20
2018-09-18T11:24:08.340Z,77.80
2018-09-18T11:26:36.209Z,76.60
2018-09-18T11:29:04.025Z,74.50
2018-09-18T11:31:31.730Z,73.30
2018-09-18T11:33:59.773Z,71.60
2018-09-18T11:36:27.979Z,71.60
2018-09-18T11:38:56.103Z,70.00
2018-09-18T11:41:23.653Z,70.20
2018-09-18T11:43:51.170Z,70.30
2018-09-18T11:46:18.846Z,68.60
2018-09-18T11:48:46.539Z,68.60
2018-09-18T11:51:14.227Z,68.50
2018-09-18T11:53:41.784Z,68.50
2018-09-18T11:58:58.451Z,68.90
2018-09-18T12:01:26.466Z,69.40
2018-09-18T12:03:53.943Z,70.70
2018-09-18T12:06:21.854Z,71.60
2018-09-18T12:11:31.625Z,73.90
2018-09-18T12:13:58.973Z,75.40
2018-09-18T12:16:26.412Z,75.90
2018-09-18T12:18:53.888Z,76.40
2018-09-18T12:21:21.316Z,76.60
2018-09-18T12:23:49.099Z,76.70
2018-09-18T12:26:16.559Z,76.50
2018-09-18T12:28:44.078Z,76.30
2018-09-18T12:31:11.539Z,76.60
2018-09-18T12:33:39.146Z,76.90
2018-09-18T12:36:07.241Z,77.20
2018-09-18T12:38:34.706Z,77.30
2018-09-18T12:41:02.393Z,77.70
2018-09-18T12:43:29.856Z,77.20
2018-09-18T12:45:57.331Z,77.40
2018-09-18T12:48:26.368Z,76.80
2018-09-18T12:50:53.901Z,76.50
2018-09-18T12:53:21.403Z,75.70
2018-09-18T12:55:48.868Z,75.00
2018-09-18T12:58:16.336Z,75.40
2018-09-18T13:00:43.782Z,75.40
2018-09-18T13:03:11.334Z,73.60
2018-09-18T13:05:38.807Z,73.60
2018-09-18T13:08:06.383Z,73.50
2018-09-18T13:10:33.722Z,73.20
2018-09-18T13:13:01.760Z,72.90
2018-09-18T13:15:29.372Z,71.10
2018-09-18T13:17:56.850Z,71.00
2018-09-18T13:20:24.285Z,71.90
2018-09-18T13:22:51.759Z,72.30
2018-09-18T13:25:19.320Z,72.60
2018-09-18T13:27:46.865Z,73.00
2018-09-18T13:30:14.348Z,74.30
2018-09-18T13:32:41.943Z,75.30
2018-09-18T13:35:09.430Z,75.70
2018-09-18T13:37:37.092Z,76.30
2018-09-18T13:40:04.791Z,76.70
2018-09-18T13:42:32.359Z,77.70
2018-09-18T13:44:59.914Z,78.60
2018-09-18T13:47:27.427Z,80.30
2018-09-18T13:49:55.298Z,81.50
2018-09-18T13:52:22.929Z,82.00
2018-09-18T13:54:50.574Z,82.20
2018-09-18T13:57:18.127Z,82.30
2018-09-18T13:59:45.746Z,82.60
2018-09-18T14:02:13.408Z,82.70
2018-09-18T14:04:41.043Z,82.90
2018-09-18T14:07:08.771Z,82.40
2018-09-18T14:09:36.509Z,82.80
2018-09-18T14:12:04.028Z,83.10
2018-09-18T14:14:31.515Z,84.70
2018-09-18T14:16:59.054Z,85.40
2018-09-18T14:19:26.559Z,85.20
2018-09-18T14:21:54.183Z,85.60
2018-09-18T14:24:21.707Z,86.70
2018-09-18T14:26:49.181Z,87.40
2018-09-18T14:29:16.619Z,87.70
2018-09-18T14:31:44.118Z,87.90
2018-09-18T14:34:11.614Z,88.20
2018-09-18T14:36:39.070Z,89.00
2018-09-18T14:39:08.695Z,88.70
2018-09-18T14:41:37.611Z,89.50
2018-09-18T14:44:05.107Z,89.50
2018-09-18T14:46:32.865Z,89.70
2018-09-18T14:49:00.297Z,89.70
2018-09-18T14:51:27.783Z,90.10
2018-09-18T14:53:55.386Z,90.10
2018-09-18T14:56:22.930Z,89.80
2018-09-18T14:58:50.468Z,89.90
2018-09-18T15:01:18.754Z,90.00
2018-09-18T15:03:46.548Z,90.10
2018-09-18T15:06:15.633Z,90.60
2018-09-18T15:08:43.259Z,90.40
2018-09-18T15:11:10.747Z,90.50
2018-09-18T15:13:38.167Z,90.30
2018-09-18T15:16:05.659Z,90.30
2018-09-18T15:18:33.103Z,90.30
2018-09-18T15:21:00.609Z,90.40
2018-09-18T15:23:28.175Z,90.50
2018-09-18T15:25:55.760Z,90.70
2018-09-18T15:28:23.321Z,90.70
2018-09-18T15:30:50.784Z,90.70
2018-09-18T15:33:18.231Z,90.80
2018-09-18T15:35:45.930Z,91.20
2018-09-18T15:38:13.511Z,91.30
2018-09-18T15:40:41.074Z,91.40
2018-09-18T15:43:08.707Z,91.50
2018-09-18T15:45:36.255Z,91.50
2018-09-18T15:48:03.765Z,91.80
2018-09-18T15:50:31.229Z,91.70
2018-09-18T15:52:58.724Z,91.60
2018-09-18T15:55:26.713Z,91.80
2018-09-18T15:57:55.499Z,91.80
2018-09-18T16:00:23.123Z,91.80
2018-09-18T16:02:50.579Z,91.80
2018-09-18T16:05:18.007Z,91.90
2018-09-18T16:07:45.447Z,91.90
2018-09-18T16:10:13.162Z,92.00
2018-09-18T16:12:40.635Z,92.00
2018-09-18T16:15:10.092Z,92.20
2018-09-18T16:17:37.543Z,92.30
2018-09-18T16:20:04.987Z,92.50
2018-09-18T16:22:32.472Z,92.50
2018-09-18T16:24:59.920Z,92.80
2018-09-18T16:27:27.506Z,92.80
2018-09-18T16:29:54.987Z,92.80
2018-09-18T16:32:22.483Z,92.90
2018-09-18T16:34:49.940Z,92.80
2018-09-18T16:37:17.616Z,92.80
2018-09-18T16:39:45.114Z,93.00
2018-09-18T16:42:12.670Z,93.00
2018-09-18T16:44:40.085Z,93.00
2018-09-18T16:47:07.642Z,93.10
2018-09-18T16:49:35.200Z,93.10
2018-09-18T16:52:02.712Z,93.20
2018-09-18T16:54:30.390Z,93.20
2018-09-18T16:56:57.775Z,93.10
2018-09-18T16:59:25.312Z,93.30
2018-09-18T17:01:52.826Z,93.60
2018-09-18T17:04:20.392Z,93.80
2018-09-18T17:06:47.782Z,93.90
2018-09-18T17:09:15.280Z,94.30
2018-09-18T17:11:42.737Z,94.40
2018-09-18T17:14:10.400Z,94.50
2018-09-18T17:16:37.927Z,94.40
2018-09-18T17:19:05.459Z,94.50
2018-09-18T17:21:32.920Z,94.70
2018-09-18T17:24:00.574Z,94.80
2018-09-18T17:26:28.049Z,95.00
2018-09-18T17:28:55.595Z,95.00
2018-09-18T17:31:23.796Z,95.10
2018-09-18T17:33:51.272Z,95.10
2018-09-18T17:36:18.747Z,95.40
2018-09-18T17:38:46.343Z,95.40
2018-09-18T17:41:13.917Z,95.50
2018-09-18T17:43:41.391Z,95.50
2018-09-18T17:46:08.906Z,95.60
2018-09-18T17:48:36.347Z,95.70
2018-09-18T17:51:03.890Z,95.90
2018-09-18T17:53:31.391Z,95.90
2018-09-18T17:55:58.920Z,96.00
2018-09-18T17:58:26.467Z,96.00
2018-09-18T18:00:54.036Z,96.30
2018-09-18T18:03:21.611Z,96.20
2018-09-18T18:05:49.290Z,96.30
2018-09-18T18:08:16.897Z,96.20
2018-09-18T18:10:44.612Z,96.30
2018-09-18T18:13:12.570Z,96.50
2018-09-18T18:15:40.098Z,96.50
2018-09-18T18:18:07.868Z,96.70
2018-09-18T18:20:35.737Z,96.90
2018-09-18T18:23:03.076Z,96.90
2018-09-18T18:25:30.559Z,97.00
2018-09-18T18:27:58.252Z,96.80
2018-09-18T18:30:25.708Z,97.10
2018-09-18T18:32:53.259Z,97.20
2018-09-18T18:35:20.794Z,97.40
2018-09-18T18:37:49.166Z,97.60
2018-09-18T18:40:16.632Z,97.60
2018-09-18T18:42:44.115Z,97.60
2018-09-18T18:45:11.619Z,97.70
2018-09-18T18:47:39.332Z,97.70
2018-09-18T18:50:06.776Z,97.80
2018-09-18T18:52:34.555Z,97.80
2018-09-18T18:55:02.026Z,98.10
2018-09-18T18:57:29.557Z,98.20
2018-09-18T18:59:59.233Z,98.30
2018-09-18T19:02:26.784Z,98.10
2018-09-18T19:04:54.323Z,98.20
2018-09-18T19:07:21.878Z,98.20
2018-09-18T19:09:49.316Z,98.20
2018-09-18T19:12:17.531Z,98.30
2018-09-18T19:14:45.005Z,98.40
2018-09-18T19:17:12.483Z,98.60
2018-09-18T19:19:40.151Z,98.80
2018-09-18T19:22:07.783Z,98.80
2018-09-18T19:24:35.247Z,98.90
2018-09-18T19:27:02.713Z,99.00
2018-09-18T19:29:30.220Z,99.00
2018-09-18T19:31:57.947Z,99.10
2018-09-18T19:34:26.195Z,99.30
2018-09-18T19:36:53.646Z,99.30
2018-09-18T19:39:21.521Z,99.30
2018-09-18T19:41:48.939Z,99.40
2018-09-18T19:44:16.488Z,99.50
2018-09-18T19:46:45.055Z,99.30
2018-09-18T19:49:12.787Z,99.60
2018-09-18T19:51:40.838Z,99.70
2018-09-18T19:54:08.628Z,99.70
2018-09-18T19:56:36.727Z,99.90
2018-09-18T19:59:08.067Z,99.90
2018-09-18T20:01:35.938Z,99.90
2018-09-18T20:04:04.014Z,99.90
2018-09-18T20:06:31.674Z,99.90
2018-09-18T20:09:00.398Z,99.90
2018-09-18T20:11:28.645Z,99.90
2018-09-18T20:13:56.485Z,99.90
2018-09-18T20:16:26.400Z,99.90
2018-09-18T20:18:55.047Z,99.90
2018-09-18T20:21:22.520Z,99.90
2018-09-18T20:23:49.999Z,99.90
2018-09-18T20:26:19.776Z,99.90
2018-09-18T20:28:47.663Z,99.90
2018-09-18T20:31:15.175Z,99.90
2018-09-18T20:33:42.865Z,99.90
2018-09-18T20:36:11.431Z,99.90
2018-09-18T20:38:39.097Z,99.90
2018-09-18T20:41:06.813Z,99.90
2018-09-18T20:43:34.420Z,99.90
2018-09-18T20:46:01.994Z,99.90
2018-09-18T20:48:29.768Z,99.90
2018-09-18T20:50:57.251Z,99.90
2018-09-18T20:53:25.847Z,99.90
2018-09-18T20:55:54.070Z,99.90
2018-09-18T20:58:21.990Z,99.90
2018-09-18T21:00:50.127Z,99.90
2018-09-18T21:03:20.473Z,99.90
2018-09-18T21:05:49.541Z,99.90
2018-09-18T21:08:17.528Z,99.90
2018-09-18T21:10:47.259Z,99.90
2018-09-18T21:13:16.397Z,99.90
2018-09-18T21:15:46.013Z,99.90
2018-09-18T21:18:15.905Z,99.90
2018-09-18T21:20:48.145Z,99.90
2018-09-18T21:23:24.185Z,99.90
2018-09-18T21:25:58.563Z,99.90
2018-09-18T21:28:28.347Z,99.90
2018-09-18T21:31:07.605Z,99.90
2018-09-18T21:33:36.476Z,99.90
2018-09-18T21:36:07.650Z,99.90
2018-09-18T21:38:38.435Z,99.90
2018-09-18T21:41:06.768Z,99.90
2018-09-18T21:43:35.362Z,99.90
2018-09-18T21:46:03.081Z,99.90
2018-09-18T21:58:20.647Z,99.90
2018-09-18T22:00:49.912Z,99.90
2018-09-18T22:03:17.764Z,99.90
2018-09-18T22:05:45.447Z,99.90
2018-09-18T22:08:13.695Z,99.90
2018-09-18T22:10:41.677Z,99.90
2018-09-18T22:13:09.716Z,99.90
2018-09-18T22:15:39.241Z,99.90
2018-09-18T22:18:06.858Z,99.90
2018-09-18T22:20:36.345Z,99.90
2018-09-18T22:23:04.679Z,99.90
2018-09-18T22:25:33.145Z,99.90
2018-09-18T22:28:02.376Z,99.90
2018-09-18T22:30:29.927Z,99.90
2018-09-18T22:32:57.873Z,99.90
2018-09-18T22:35:25.460Z,99.90
2018-09-18T22:37:53.132Z,99.90
2018-09-18T22:40:20.719Z,99.90
2018-09-18T22:42:48.389Z,99.90
2018-09-18T22:45:16.015Z,99.90
2018-09-18T22:47:43.678Z,99.90
2018-09-18T22:50:11.168Z,99.90
2018-09-18T22:52:38.876Z,99.90
2018-09-18T22:55:06.497Z,99.90
2018-09-18T22:57:35.073Z,99.90
2018-09-18T23:00:02.542Z,99.90
2018-09-18T23:02:30.032Z,99.90
2018-09-18T23:04:57.612Z,99.90
2018-09-18T23:07:25.233Z,99.90
2018-09-18T23:09:52.761Z,99.90
2018-09-18T23:12:20.272Z,99.90
2018-09-18T23:14:47.721Z,99.90
2018-09-18T23:17:15.711Z,99.90
2018-09-18T23:19:43.377Z,99.90
2018-09-18T23:22:11.263Z,99.90
2018-09-18T23:24:38.891Z,99.90
2018-09-18T23:27:06.608Z,99.90
2018-09-18T23:29:34.130Z,99.90
2018-09-18T23:32:02.681Z,99.90
2018-09-18T23:34:30.200Z,99.90
2018-09-18T23:36:57.722Z,99.90
2018-09-18T23:39:25.231Z,99.90
2018-09-18T23:41:53.855Z,99.90
2018-09-18T23:44:21.279Z,99.90
2018-09-18T23:46:48.719Z,99.90
2018-09-18T23:49:16.373Z,99.90
2018-09-18T23:51:44.063Z,99.90
2018-09-18T23:54:16.021Z,99.90
2018-09-18T23:56:44.054Z,99.90
2018-09-18T23:59:11.452Z,99.90
